Time;durP1;ratioP1;P1;durP2;ratioP2;P2;SDS_P1;SDS_P2;PMS_P1;PMS_P2;Temp;Humidity;BMP_temperature;BMP_pressure;BME280_temperature;BME280_humidity;BME280_pressure;Samples;Min_cycle;Max_cycle;Signal;HPM_P1;HPM_P2
2022/05/28 00:00:18;;;;;;;0.63;0.63;;;;;;;14.67;46.41;101607.91;5182180;28;20041;-83
2022/05/28 00:02:48;;;;;;;1.05;0.95;;;;;;;14.58;46.38;101609.88;5149823;28;20152;-83
2022/05/28 00:05:19;;;;;;;0.82;0.82;;;;;;;14.30;48.67;101601.91;5150340;28;20316;-84
2022/05/28 00:07:50;;;;;;;1.10;1.00;;;;;;;14.50;46.33;101603.13;5188782;28;20233;-83
2022/05/28 00:10:20;;;;;;;0.57;0.57;;;;;;;14.50;46.64;101595.19;5181979;28;20106;-82
2022/05/28 00:12:51;;;;;;;1.13;1.13;;;;;;;14.49;47.20;101594.31;5180871;28;20021;-81
2022/05/28 00:15:23;;;;;;;3.50;1.10;;;;;;;14.33;48.38;101592.13;5175976;28;20050;-81
2022/05/28 00:17:54;;;;;;;1.40;1.30;;;;;;;14.29;47.94;101582.56;5162922;28;20029;-82
2022/05/28 00:20:25;;;;;;;0.95;0.57;;;;;;;14.40;47.49;101584.00;5196403;28;20033;-82
2022/05/28 00:22:56;;;;;;;0.60;0.60;;;;;;;14.14;48.16;101573.31;5147774;28;20276;-82
2022/05/28 00:25:26;;;;;;;1.00;0.80;;;;;;;14.27;47.41;101570.31;5176572;28;20057;-82
2022/05/28 00:27:57;;;;;;;0.45;0.45;;;;;;;14.17;47.71;101573.19;5179900;28;20029;-83
2022/05/28 00:30:27;;;;;;;1.20;0.40;;;;;;;14.24;47.84;101573.06;5160405;28;20521;-82
2022/05/28 00:32:58;;;;;;;0.73;0.73;;;;;;;14.11;47.92;101573.38;5146341;28;20026;-82
2022/05/28 00:35:28;;;;;;;0.60;0.60;;;;;;;14.15;48.42;101572.41;5173131;28;20041;-82
2022/05/28 00:37:59;;;;;;;0.63;0.63;;;;;;;14.11;48.35;101567.25;5178667;28;20413;-83
2022/05/28 00:40:29;;;;;;;0.57;0.57;;;;;;;14.17;47.60;101567.94;5178805;28;20099;-82
2022/05/28 00:43:03;;;;;;;0.52;0.52;;;;;;;14.13;47.43;101573.38;5200363;28;20033;-82
2022/05/28 00:45:34;;;;;;;0.85;0.85;;;;;;;14.15;47.35;101568.88;5162443;28;20034;-82
2022/05/28 00:48:06;;;;;;;0.30;0.30;;;;;;;14.12;47.24;101567.19;5165641;28;20543;-82
2022/05/28 00:50:38;;;;;;;0.50;0.50;;;;;;;14.03;48.65;101569.25;5183649;28;20304;-83
2022/05/28 00:53:09;;;;;;;0.33;0.33;;;;;;;13.85;49.14;101566.22;5175193;28;20033;-82
2022/05/28 00:55:39;;;;;;;3.10;2.22;;;;;;;13.89;48.32;101569.63;5172663;28;20052;-82
2022/05/28 00:58:10;;;;;;;0.30;0.30;;;;;;;13.91;48.65;101571.31;5182661;28;20041;-82
2022/05/28 01:00:42;;;;;;;0.82;0.60;;;;;;;13.78;49.97;101565.50;5165835;28;20041;-82
2022/05/28 01:03:23;;;;;;;0.50;0.50;;;;;;;13.88;49.30;101568.78;5183364;28;20036;-82
2022/05/28 01:06:11;;;;;;;1.55;1.02;;;;;;;13.89;48.26;101562.56;5181271;28;20049;-81
2022/05/28 01:08:49;;;;;;;0.32;0.32;;;;;;;13.88;48.35;101552.06;5196380;28;20065;-82
2022/05/28 01:11:29;;;;;;;0.50;0.50;;;;;;;13.88;49.43;101549.44;5180893;28;20318;-82
2022/05/28 01:14:05;;;;;;;0.40;0.40;;;;;;;13.80;49.23;101550.50;5160868;28;20478;-82
2022/05/28 01:16:47;;;;;;;0.30;0.30;;;;;;;13.84;49.14;101549.50;5179295;28;20406;-82
2022/05/28 01:19:32;;;;;;;9.90;0.43;;;;;;;13.76;49.28;101543.56;5181559;28;20065;-82
2022/05/28 01:22:40;;;;;;;0.35;0.35;;;;;;;13.83;49.35;101542.53;5182435;28;20067;-82
2022/05/28 01:25:38;;;;;;;0.90;0.90;;;;;;;13.76;50.58;101538.28;5193034;28;20096;-82
2022/05/28 01:28:17;;;;;;;0.28;0.28;;;;;;;13.81;49.82;101548.72;5174139;28;20067;-81
2022/05/28 01:30:49;;;;;;;1.75;0.70;;;;;;;13.79;50.03;101540.00;5183779;28;20128;-81
2022/05/28 01:33:21;;;;;;;0.25;0.25;;;;;;;13.76;50.66;101540.94;5202512;28;20068;-82
2022/05/28 01:35:53;;;;;;;2.85;1.30;;;;;;;13.67;51.52;101541.22;5167347;28;20148;-82
2022/05/28 01:38:24;;;;;;;0.40;0.40;;;;;;;13.68;51.07;101537.63;5167780;28;20055;-82
2022/05/28 01:40:56;;;;;;;0.47;0.47;;;;;;;13.61;50.31;101530.81;5180456;28;20137;-82
2022/05/28 01:43:27;;;;;;;1.15;1.15;;;;;;;13.61;50.62;101529.03;5185136;28;20456;-81
2022/05/28 01:45:57;;;;;;;0.40;0.40;;;;;;;13.66;50.57;101532.41;5152066;28;20048;-82
2022/05/28 01:48:28;;;;;;;0.30;0.30;;;;;;;13.73;49.72;101526.97;5203363;28;20041;-82
2022/05/28 01:51:01;;;;;;;0.22;0.22;;;;;;;13.57;51.88;101526.53;5182766;28;20532;-82
2022/05/28 01:56:21;;;;;;;0.50;0.50;;;;;;;13.72;50.82;101534.03;5181095;28;20045;-81
2022/05/28 01:58:52;;;;;;;0.57;0.57;;;;;;;13.74;49.98;101526.06;5167396;28;20227;-82
2022/05/28 02:01:23;;;;;;;6.13;1.27;;;;;;;13.67;51.98;101522.75;5198667;28;20395;-81
2022/05/28 02:03:57;;;;;;;0.77;0.60;;;;;;;13.74;51.43;101526.06;5180731;28;20041;-81
2022/05/28 02:06:28;;;;;;;1.75;1.30;;;;;;;13.49;52.83;101519.69;5181296;28;20045;-81
2022/05/28 02:08:59;;;;;;;1.27;1.17;;;;;;;13.56;51.60;101524.78;5171256;28;20548;-81
2022/05/28 02:11:44;;;;;;;0.55;0.45;;;;;;;13.38;53.19;101521.69;5162780;28;20069;-81
2022/05/28 02:14:26;;;;;;;0.50;0.50;;;;;;;13.06;54.81;101516.34;5182245;28;20033;-81
2022/05/28 02:17:08;;;;;;;0.30;0.30;;;;;;;13.30;52.80;101513.13;5183030;28;20033;-82
2022/05/28 02:20:07;;;;;;;0.25;0.25;;;;;;;13.44;51.78;101507.53;5166620;28;20398;-81
2022/05/28 02:23:03;;;;;;;1.45;1.33;;;;;;;13.46;51.27;101517.13;5176452;28;20040;-81
2022/05/28 02:25:43;;;;;;;2.92;0.55;;;;;;;13.45;50.90;101512.75;5176231;28;20584;-81
2022/05/28 02:28:15;;;;;;;0.55;0.55;;;;;;;13.49;51.06;101514.41;5168797;28;20543;-81
2022/05/28 02:30:49;;;;;;;5.68;1.42;;;;;;;13.49;51.13;101513.53;5188402;28;20042;-82
2022/05/28 02:33:20;;;;;;;0.30;0.30;;;;;;;13.52;51.32;101510.84;5183439;28;20724;-82
2022/05/28 02:35:50;;;;;;;0.45;0.45;;;;;;;13.50;50.79;101510.00;5181977;28;20401;-81
2022/05/28 02:38:21;;;;;;;0.63;0.63;;;;;;;13.46;51.45;101511.84;5181838;28;20041;-81
2022/05/28 02:40:54;;;;;;;0.32;0.32;;;;;;;13.47;51.95;101512.75;5200964;28;20049;-81
2022/05/28 02:43:25;;;;;;;1.00;0.98;;;;;;;13.46;51.90;101518.91;5181422;28;20029;-82
2022/05/28 02:45:56;;;;;;;0.45;0.45;;;;;;;13.36;53.20;101513.84;5162973;28;20040;-82
2022/05/28 02:48:26;;;;;;;1.27;1.17;;;;;;;13.27;53.63;101500.91;5180493;28;20489;-81
2022/05/28 02:51:19;;;;;;;7.03;0.85;;;;;;;13.33;52.53;101507.78;5164701;28;20029;-82
2022/05/28 02:53:53;;;;;;;0.40;0.40;;;;;;;13.33;53.31;101507.78;5184999;28;20036;-81
2022/05/28 02:56:23;;;;;;;0.50;0.50;;;;;;;13.08;54.25;101511.06;5164380;28;20029;-82
2022/05/28 02:58:54;;;;;;;0.52;0.52;;;;;;;13.27;52.25;101513.19;5180527;28;20436;-82
2022/05/28 03:01:32;;;;;;;0.60;0.60;;;;;;;13.18;53.40;101512.53;5167196;28;20045;-82
2022/05/28 03:04:05;;;;;;;1.55;0.95;;;;;;;13.28;52.70;101509.66;5172699;28;20339;-82
2022/05/28 03:06:35;;;;;;;0.43;0.43;;;;;;;13.33;51.75;101508.63;5192287;28;20493;-83
2022/05/28 03:09:07;;;;;;;1.02;0.80;;;;;;;13.18;53.71;101517.78;5163051;28;20037;-82
2022/05/28 03:11:38;;;;;;;0.82;0.82;;;;;;;13.32;53.06;101512.19;5164965;28;20038;-81
2022/05/28 03:14:08;;;;;;;11.40;1.45;;;;;;;13.22;53.78;101514.19;5148107;28;20037;-81
2022/05/28 03:16:39;;;;;;;0.98;0.77;;;;;;;13.19;52.77;101523.94;5146965;28;20211;-81
2022/05/28 03:19:10;;;;;;;0.52;0.52;;;;;;;13.23;53.37;101518.56;5146447;28;20033;-82
2022/05/28 03:21:41;;;;;;;0.40;0.40;;;;;;;13.14;52.93;101521.44;5165604;28;20032;-82
2022/05/28 03:24:11;;;;;;;0.30;0.30;;;;;;;13.03;54.96;101513.78;5181810;28;20097;-82
2022/05/28 03:26:42;;;;;;;0.73;0.73;;;;;;;12.88;55.26;101512.38;5166191;28;20489;-82
2022/05/28 03:29:12;;;;;;;4.03;0.82;;;;;;;12.98;54.93;101514.81;5162964;28;20029;-81
2022/05/28 03:31:42;;;;;;;1.48;1.38;;;;;;;12.75;55.66;101517.09;5165975;28;20028;-81
2022/05/28 03:34:13;;;;;;;0.73;0.73;;;;;;;13.05;53.57;101514.63;5164041;28;20033;-82
2022/05/28 03:36:43;;;;;;;0.50;0.50;;;;;;;12.83;55.96;101510.75;5162436;28;20037;-81
2022/05/28 03:39:14;;;;;;;0.35;0.35;;;;;;;12.86;54.96;101513.34;5164298;28;20094;-81
2022/05/28 03:41:45;;;;;;;0.40;0.40;;;;;;;12.73;56.40;101516.25;5184178;28;20125;-82
2022/05/28 03:44:16;;;;;;;1.45;0.75;;;;;;;12.82;55.67;101507.28;5200205;28;20057;-82
2022/05/28 03:46:47;;;;;;;0.70;0.70;;;;;;;12.70;56.60;101510.19;5146838;28;20099;-81
2022/05/28 03:49:29;;;;;;;4.88;1.95;;;;;;;12.73;55.11;101508.34;5149691;28;20048;-82
2022/05/28 03:52:01;;;;;;;0.40;0.40;;;;;;;12.86;54.78;101511.56;5187207;28;20029;-82
2022/05/28 03:54:32;;;;;;;1.88;0.88;;;;;;;12.88;54.76;101509.75;5184304;28;20480;-82
2022/05/28 03:57:05;;;;;;;0.40;0.40;;;;;;;12.83;54.87;101505.50;5165534;28;20064;-81
2022/05/28 03:59:36;;;;;;;1.27;1.17;;;;;;;12.73;55.93;101505.72;5162714;28;20132;-81
2022/05/28 04:02:06;;;;;;;0.95;0.90;;;;;;;12.79;54.76;101507.34;5165487;28;20064;-81
2022/05/28 04:04:37;;;;;;;0.30;0.30;;;;;;;12.85;54.33;101504.56;5180533;28;20046;-81
2022/05/28 04:07:10;;;;;;;2.25;1.17;;;;;;;12.90;56.01;101510.59;5162755;28;20488;-82
2022/05/28 04:09:41;;;;;;;0.55;0.55;;;;;;;12.79;55.96;101509.97;5197801;28;20048;-83
2022/05/28 04:12:12;;;;;;;2.30;1.38;;;;;;;12.83;55.26;101511.66;5161143;28;20030;-82
2022/05/28 04:14:44;;;;;;;0.70;0.70;;;;;;;12.87;54.07;101513.28;5178180;28;20060;-82
2022/05/28 04:17:15;;;;;;;0.50;0.50;;;;;;;12.89;54.17;101516.75;5167675;28;20040;-82
2022/05/28 04:19:45;;;;;;;0.50;0.50;;;;;;;12.86;54.24;101516.81;5181377;28;20409;-82
2022/05/28 04:22:16;;;;;;;0.20;0.20;;;;;;;12.91;54.25;101520.22;5164017;28;20026;-81
2022/05/28 04:24:46;;;;;;;0.57;0.57;;;;;;;12.88;55.45;101520.28;5195568;28;20042;-81
2022/05/28 04:27:17;;;;;;;0.88;0.88;;;;;;;12.81;56.76;101521.34;5165976;28;20029;-82
2022/05/28 04:29:47;;;;;;;0.82;0.70;;;;;;;12.92;55.16;101515.81;5154823;28;20044;-81
2022/05/28 04:32:18;;;;;;;1.02;1.02;;;;;;;12.81;56.91;101515.22;5183680;28;20079;-82
2022/05/28 04:34:48;;;;;;;0.52;0.52;;;;;;;12.69;56.13;101514.59;5181273;28;20246;-81
2022/05/28 04:37:19;;;;;;;0.32;0.32;;;;;;;12.85;55.76;101519.50;5165893;28;20085;-81
2022/05/28 04:39:49;;;;;;;1.65;0.75;;;;;;;12.84;57.09;101517.78;5198769;28;20042;-82
2022/05/28 04:42:20;;;;;;;0.20;0.20;;;;;;;12.84;55.53;101523.03;5184027;28;20026;-81
2022/05/28 04:44:50;;;;;;;0.30;0.30;;;;;;;12.90;55.55;101526.41;5166923;28;20041;-82
2022/05/28 04:47:21;;;;;;;1.00;0.95;;;;;;;12.93;55.21;101528.09;5166093;28;20395;-81
2022/05/28 04:49:51;;;;;;;0.98;0.98;;;;;;;12.87;56.16;101526.47;5166992;28;20069;-82
2022/05/28 04:52:22;;;;;;;0.93;0.85;;;;;;;12.89;55.30;101527.28;5149322;28;20108;-81
2022/05/28 04:54:52;;;;;;;2.28;1.25;;;;;;;12.90;55.93;101522.88;5176490;28;20034;-81
2022/05/28 04:57:23;;;;;;;0.30;0.30;;;;;;;12.91;54.98;101528.13;5166741;28;20028;-81
2022/05/28 04:59:53;;;;;;;0.30;0.30;;;;;;;12.90;56.28;101529.03;5181756;28;20037;-83
2022/05/28 05:02:24;;;;;;;0.43;0.43;;;;;;;12.89;56.97;101526.44;5186639;28;20083;-81
2022/05/28 05:04:57;;;;;;;0.28;0.28;;;;;;;13.02;56.61;101537.53;5150464;28;20310;-82
2022/05/28 05:07:28;;;;;;;0.20;0.20;;;;;;;13.00;55.83;101536.72;5184202;28;20576;-81
2022/05/28 05:09:58;;;;;;;1.40;1.30;;;;;;;13.03;56.47;101539.25;5182723;28;20030;-82
2022/05/28 05:12:29;;;;;;;1.55;1.45;;;;;;;12.98;55.81;101547.28;5168501;28;20022;-81
2022/05/28 05:14:59;;;;;;;0.70;0.70;;;;;;;13.07;56.43;101540.94;5183908;28;20056;-81
2022/05/28 05:17:30;;;;;;;0.47;0.47;;;;;;;12.96;56.93;101537.69;5153293;28;20529;-81
2022/05/28 05:20:00;;;;;;;0.77;0.77;;;;;;;13.02;57.66;101548.06;5183333;28;20037;-82
2022/05/28 05:22:31;;;;;;;0.57;0.57;;;;;;;12.99;57.63;101549.00;5187406;28;20025;-82
2022/05/28 05:25:02;;;;;;;6.63;1.05;;;;;;;13.01;57.48;101549.00;5184558;28;20618;-81
2022/05/28 05:27:33;;;;;;;1.67;1.58;;;;;;;13.05;57.18;101548.00;5184507;28;20179;-82
2022/05/28 05:30:05;;;;;;;1.50;1.08;;;;;;;12.99;57.76;101541.09;5205350;28;20141;-82
2022/05/28 05:32:35;;;;;;;0.30;0.30;;;;;;;13.01;58.72;101549.00;5188053;28;20160;-83
2022/05/28 05:35:07;;;;;;;0.45;0.45;;;;;;;13.01;56.95;101549.84;5169204;28;20049;-82
2022/05/28 05:37:37;;;;;;;0.47;0.47;;;;;;;13.13;57.91;101547.81;5164631;28;20030;-81
2022/05/28 05:40:11;;;;;;;0.60;0.60;;;;;;;13.12;57.08;101546.09;5182482;28;20045;-81
2022/05/28 05:42:41;;;;;;;0.20;0.20;;;;;;;13.03;59.83;101549.78;5151114;28;20030;-81
2022/05/28 05:45:12;;;;;;;0.20;0.20;;;;;;;13.12;58.78;101552.22;5166962;28;20113;-80
2022/05/28 05:47:42;;;;;;;0.30;0.30;;;;;;;13.11;58.30;101558.38;5186910;28;20116;-81
2022/05/28 05:50:13;;;;;;;0.52;0.52;;;;;;;13.15;59.13;101554.78;5162460;28;20067;-81
2022/05/28 05:52:43;;;;;;;0.20;0.20;;;;;;;13.16;59.43;101556.53;5161781;28;20089;-82
2022/05/28 05:55:14;;;;;;;0.60;0.60;;;;;;;13.17;58.64;101560.00;5188557;28;20083;-81
2022/05/28 05:57:45;;;;;;;1.52;1.48;;;;;;;13.26;59.22;101559.78;5164763;28;20328;-81
2022/05/28 06:00:16;;;;;;;1.25;1.25;;;;;;;13.25;60.75;101560.69;5160005;28;20527;-82
2022/05/28 06:02:46;;;;;;;3.15;1.15;;;;;;;13.21;58.90;101559.03;5163619;28;20080;-82
2022/05/28 06:05:17;;;;;;;0.57;0.57;;;;;;;13.21;60.04;101552.00;5175571;28;20390;-81
2022/05/28 06:07:48;;;;;;;0.40;0.40;;;;;;;13.28;60.64;101554.47;5164025;28;20033;-82
2022/05/28 06:10:19;;;;;;;0.35;0.35;;;;;;;13.28;59.63;101557.09;5152648;28;20128;-83
2022/05/28 06:12:49;;;;;;;0.30;0.30;;;;;;;13.36;59.55;101557.78;5170456;28;20080;-83
2022/05/28 06:15:20;;;;;;;1.13;1.02;;;;;;;13.27;59.32;101552.72;5168391;28;20107;-84
2022/05/28 06:17:50;;;;;;;0.40;0.40;;;;;;;13.32;59.08;101551.72;5151104;28;20048;-84
2022/05/28 06:20:21;;;;;;;0.60;0.60;;;;;;;13.36;58.80;101557.78;5181911;28;20045;-83
2022/05/28 06:22:51;;;;;;;0.30;0.30;;;;;;;13.38;58.93;101561.25;5181087;28;20216;-84
2022/05/28 06:25:22;;;;;;;4.70;1.27;;;;;;;13.51;59.78;101549.50;5148011;28;20444;-83
2022/05/28 06:27:52;;;;;;;1.15;1.10;;;;;;;13.54;60.12;101556.47;5180716;28;20026;-82
2022/05/28 06:30:23;;;;;;;1.90;1.38;;;;;;;13.67;60.27;101557.88;5200542;28;20101;-82
2022/05/28 06:32:54;;;;;;;9.68;1.00;;;;;;;13.58;60.26;101555.47;5182839;28;20057;-81
2022/05/28 06:35:24;;;;;;;1.52;1.42;;;;;;;13.70;58.92;101559.56;5160325;28;20057;-80
2022/05/28 06:37:55;;;;;;;1.00;0.75;;;;;;;13.77;59.82;101569.03;5177510;28;20029;-80
2022/05/28 06:40:25;;;;;;;0.40;0.40;;;;;;;13.67;60.32;101559.66;5162730;28;20137;-81
2022/05/28 06:42:56;;;;;;;0.32;0.32;;;;;;;13.65;60.03;101558.84;5192658;28;20030;-81
2022/05/28 06:45:26;;;;;;;0.50;0.50;;;;;;;13.71;59.20;101563.94;5163627;28;20086;-82
2022/05/28 06:47:57;;;;;;;1.08;0.68;;;;;;;13.72;57.71;101563.03;5174438;28;20071;-82
2022/05/28 06:53:17;;;;;;;3.17;1.02;;;;;;;13.75;57.37;101560.31;5165957;28;20037;-83
2022/05/28 06:55:47;;;;;;;0.20;0.20;;;;;;;13.79;57.23;101566.38;5152217;28;20041;-83
2022/05/28 06:58:18;;;;;;;0.75;0.55;;;;;;;13.88;57.51;101565.25;5181361;28;20039;-82
2022/05/28 07:00:49;;;;;;;0.63;0.63;;;;;;;13.90;58.06;101566.09;5179067;28;20042;-83
2022/05/28 07:03:22;;;;;;;0.30;0.30;;;;;;;13.83;58.00;101566.25;5182698;28;20033;-82
2022/05/28 07:05:54;;;;;;;0.40;0.40;;;;;;;13.90;57.33;101569.56;5162366;28;20037;-82
2022/05/28 07:08:25;;;;;;;1.85;1.48;;;;;;;13.94;57.90;101570.34;5182645;28;20033;-80
2022/05/28 07:10:59;;;;;;;1.20;0.93;;;;;;;14.00;57.27;101568.41;5167475;28;20048;-80
2022/05/28 07:13:30;;;;;;;0.30;0.30;;;;;;;14.04;57.57;101569.19;5184944;28;20032;-81
2022/05/28 07:16:00;;;;;;;0.30;0.30;;;;;;;14.15;57.33;101572.41;5168031;28;20060;-83
2022/05/28 07:18:32;;;;;;;0.30;0.30;;;;;;;14.10;56.85;101574.28;5189189;28;20558;-82
2022/05/28 07:21:03;;;;;;;0.30;0.30;;;;;;;14.08;56.84;101570.84;5189753;28;20029;-82
2022/05/28 07:23:34;;;;;;;0.30;0.30;;;;;;;14.25;55.79;101564.22;5149039;28;20084;-82
2022/05/28 07:26:06;;;;;;;0.20;0.20;;;;;;;14.23;55.59;101571.31;5195298;28;20497;-82
2022/05/28 07:28:38;;;;;;;0.30;0.30;;;;;;;14.33;55.35;101567.50;5167779;28;20037;-82
2022/05/28 07:31:12;;;;;;;0.55;0.40;;;;;;;14.23;54.64;101574.81;5167616;28;20124;-82
2022/05/28 07:33:44;;;;;;;0.30;0.30;;;;;;;14.35;54.34;101572.72;5183902;28;20468;-82
2022/05/28 07:36:17;;;;;;;0.30;0.30;;;;;;;14.41;54.06;101580.47;5179151;28;20529;-82
2022/05/28 07:38:49;;;;;;;0.30;0.30;;;;;;;14.37;54.61;101579.69;5181071;28;20029;-82
2022/05/28 07:41:22;;;;;;;11.85;0.80;;;;;;;14.48;54.76;101577.63;5180774;28;20057;-82
2022/05/28 07:43:54;;;;;;;0.43;0.43;;;;;;;14.46;54.85;101575.94;5165502;28;20044;-82
2022/05/28 07:46:28;;;;;;;0.50;0.50;;;;;;;14.44;54.40;101575.97;5171681;28;20049;-82
2022/05/28 07:49:01;;;;;;;0.52;0.52;;;;;;;14.39;53.71;101575.25;5161863;28;20033;-82
2022/05/28 07:51:31;;;;;;;0.20;0.20;;;;;;;14.42;52.58;101575.13;5161141;28;20038;-82
2022/05/28 07:54:03;;;;;;;0.20;0.20;;;;;;;14.43;52.91;101573.38;5154972;28;20541;-82
2022/05/28 07:56:34;;;;;;;0.30;0.30;;;;;;;14.41;52.57;101576.06;5183358;28;20597;-82
2022/05/28 07:59:04;;;;;;;0.30;0.30;;;;;;;14.44;52.37;101575.09;5168209;28;20101;-82
2022/05/28 08:01:36;;;;;;;0.95;0.73;;;;;;;14.39;52.55;101567.31;5184075;28;20143;-82
2022/05/28 08:04:08;;;;;;;0.30;0.30;;;;;;;14.39;52.61;101572.59;5155674;28;20063;-83
2022/05/28 08:06:38;;;;;;;1.63;0.95;;;;;;;14.38;52.64;101575.28;5194618;28;20041;-82
2022/05/28 08:09:10;;;;;;;8.88;1.13;;;;;;;14.37;52.69;101571.78;5180638;28;20063;-82
2022/05/28 08:11:41;;;;;;;0.43;0.43;;;;;;;14.43;52.52;101579.50;5191550;28;20036;-83
2022/05/28 08:14:12;;;;;;;0.40;0.40;;;;;;;14.38;50.70;101573.50;5184801;28;20029;-83
2022/05/28 08:16:42;;;;;;;0.20;0.20;;;;;;;14.51;50.97;101567.84;5164426;28;20021;-83
2022/05/28 08:19:13;;;;;;;0.30;0.30;;;;;;;14.36;49.77;101572.69;5148812;28;20038;-83
2022/05/28 08:24:32;;;;;;;2.92;1.05;;;;;;;14.39;50.79;101572.59;5198003;28;20512;-82
2022/05/28 08:27:03;;;;;;;0.40;0.40;;;;;;;14.48;50.52;101567.06;5180233;28;20029;-82
2022/05/28 08:29:34;;;;;;;0.88;0.88;;;;;;;14.53;48.36;101566.03;5146307;28;20064;-82
2022/05/28 08:32:05;;;;;;;0.30;0.30;;;;;;;14.55;48.99;101572.13;5156948;28;20437;-83
2022/05/28 08:34:36;;;;;;;0.20;0.20;;;;;;;14.50;48.54;101569.63;5183445;28;20607;-82
2022/05/28 08:37:06;;;;;;;0.40;0.40;;;;;;;14.60;48.02;101576.38;5151640;28;20206;-85
2022/05/28 08:39:40;;;;;;;0.20;0.20;;;;;;;14.54;47.51;101575.69;5185216;28;20034;-83
2022/05/28 08:42:12;;;;;;;;;;;;;;;14.60;48.33;101575.50;5169718;28;20544;-83
2022/05/28 08:44:42;;;;;;;2.15;1.40;;;;;;;14.65;48.22;101581.53;5184854;28;20337;-83
2022/05/28 08:47:17;;;;;;;2.47;1.88;;;;;;;14.51;48.49;101573.13;5167343;28;20045;-83
2022/05/28 08:49:50;;;;;;;1.05;1.05;;;;;;;14.64;48.00;101569.22;5183710;28;20095;-83
2022/05/28 08:52:54;;;;;;;0.32;0.32;;;;;;;14.73;48.19;101568.97;5184233;28;20266;-83
2022/05/28 08:55:26;;;;;;;0.20;0.20;;;;;;;14.72;48.75;101576.94;5181293;28;20030;-83
2022/05/28 08:58:04;;;;;;;0.30;0.30;;;;;;;14.72;48.67;101575.16;5153668;28;20489;-83
2022/05/28 09:00:58;;;;;;;0.30;0.30;;;;;;;14.69;48.32;101569.97;5181789;28;20712;-83
2022/05/28 09:03:47;;;;;;;0.47;0.47;;;;;;;14.86;47.22;101571.22;5155152;28;20128;-83
2022/05/28 09:06:38;;;;;;;10.02;2.50;;;;;;;14.83;46.97;101566.06;5176621;28;20044;-83
2022/05/28 09:09:13;;;;;;;0.40;0.40;;;;;;;14.81;45.37;101562.59;5185912;28;20112;-82
2022/05/28 09:12:03;;;;;;;0.20;0.20;;;;;;;14.98;46.42;101578.78;5188181;28;20037;-83
2022/05/28 09:14:38;;;;;;;1.02;0.75;;;;;;;15.00;46.91;101563.72;5150720;28;20060;-83
2022/05/28 09:17:21;;;;;;;0.22;0.22;;;;;;;14.97;47.03;101560.31;5185196;28;20042;-83
2022/05/28 09:19:55;;;;;;;1.03;1.03;;;;;;;15.02;47.37;101561.88;5154686;28;20047;-83
2022/05/28 09:22:26;;;;;;;0.45;0.45;;;;;;;15.09;46.88;101568.69;5171714;28;20365;-82
2022/05/28 09:24:56;;;;;;;0.60;0.60;;;;;;;15.05;46.29;101566.22;5197338;28;20038;-83
2022/05/28 09:27:45;;;;;;;0.47;0.47;;;;;;;15.01;44.61;101560.16;5169621;28;20029;-81
2022/05/28 09:30:31;;;;;;;0.30;0.30;;;;;;;15.09;44.60;101566.06;5168168;28;20127;-83
2022/05/28 09:33:01;;;;;;;1.13;0.57;;;;;;;15.02;44.32;101567.19;5170323;28;20029;-83
2022/05/28 09:35:37;;;;;;;0.93;0.47;;;;;;;15.13;43.86;101573.91;5183120;28;20049;-83
2022/05/28 09:38:20;;;;;;;0.30;0.30;;;;;;;15.07;44.74;101562.63;5185941;28;20029;-83
2022/05/28 09:41:23;;;;;;;0.40;0.40;;;;;;;15.16;43.27;101561.44;5152856;28;20048;-83
2022/05/28 09:44:04;;;;;;;0.20;0.20;;;;;;;15.11;42.68;101558.09;5200998;28;20029;-82
2022/05/28 09:46:40;;;;;;;0.85;0.85;;;;;;;15.04;43.32;101554.78;5181777;28;20064;-83
2022/05/28 09:49:23;;;;;;;0.20;0.20;;;;;;;15.12;43.13;101557.19;5168898;28;20125;-83
2022/05/28 09:52:09;;;;;;;0.30;0.30;;;;;;;15.05;43.47;101550.34;5145084;28;20026;-82
2022/05/28 09:54:39;;;;;;;0.95;0.95;;;;;;;15.10;43.51;101561.66;5151887;28;20275;-82
2022/05/28 09:57:20;;;;;;;0.20;0.20;;;;;;;15.18;43.95;101561.38;5167158;28;20152;-83
2022/05/28 10:00:06;;;;;;;0.20;0.20;;;;;;;15.25;44.35;101560.25;5153010;28;20040;-83
2022/05/28 10:04:28;;;;;;;0.40;0.40;;;;;;;15.23;44.34;101565.59;5162007;28;20030;-83
2022/05/28 10:05:54;;;;;;;0.70;0.70;;;;;;;15.19;44.84;101549.91;5191785;28;20037;-83
2022/05/28 10:08:33;;;;;;;0.30;0.30;;;;;;;15.36;43.84;101550.19;5167842;28;20144;-83
2022/05/28 10:11:05;;;;;;;0.35;0.35;;;;;;;15.32;42.52;101551.25;5181304;28;20092;-82
2022/05/28 10:13:52;;;;;;;0.67;0.53;;;;;;;15.39;41.13;101554.50;5163465;28;20029;-83
2022/05/28 10:16:32;;;;;;;0.20;0.20;;;;;;;15.32;41.77;101548.59;5167813;28;20041;-82
2022/05/28 10:19:03;;;;;;;0.30;0.30;;;;;;;15.30;42.67;101534.56;5168401;28;20034;-81
2022/05/28 10:21:39;;;;;;;0.25;0.25;;;;;;;15.51;42.03;101537.38;5149517;28;20091;-82
2022/05/28 10:24:17;;;;;;;0.35;0.35;;;;;;;15.48;41.75;101535.69;5166816;28;20040;-84
2022/05/28 10:26:58;;;;;;;0.35;0.35;;;;;;;15.55;41.10;101533.72;5184415;28;20029;-81
2022/05/28 10:29:38;;;;;;;1.15;1.05;;;;;;;15.60;40.08;101536.19;5201279;28;23177;-82
2022/05/28 10:32:26;;;;;;;0.30;0.30;;;;;;;15.56;42.14;101535.44;5151352;28;20021;-82
2022/05/28 10:35:02;;;;;;;0.30;0.30;;;;;;;15.69;41.81;101522.66;5151062;28;20087;-82
2022/05/28 10:37:33;;;;;;;0.63;0.63;;;;;;;15.60;41.75;101528.25;5184388;28;20036;-82
2022/05/28 10:40:10;;;;;;;0.93;0.50;;;;;;;15.79;41.17;101509.94;5181031;28;20160;-82
2022/05/28 10:42:40;;;;;;;0.28;0.28;;;;;;;16.05;40.48;101522.22;5180443;28;20444;-82
2022/05/28 10:45:16;;;;;;;0.30;0.30;;;;;;;15.97;39.62;101529.59;5164550;28;20049;-82
2022/05/28 10:48:17;;;;;;;0.30;0.30;;;;;;;15.94;40.22;101527.94;5180823;28;20379;-83
2022/05/28 10:50:57;;;;;;;0.20;0.20;;;;;;;16.01;39.96;101531.22;5191298;28;20142;-83
2022/05/28 10:54:05;;;;;;;0.20;0.20;;;;;;;16.05;38.61;101525.75;5169564;28;20037;-83
2022/05/28 10:56:45;;;;;;;0.85;0.85;;;;;;;16.09;40.21;101522.97;5152727;28;20127;-83
2022/05/28 10:59:42;;;;;;;0.20;0.20;;;;;;;16.11;40.09;101521.16;5144805;28;20037;-84
2022/05/28 11:02:22;;;;;;;0.30;0.30;;;;;;;16.08;41.02;101522.13;5180989;28;20032;-84
2022/05/28 11:05:08;;;;;;;0.40;0.40;;;;;;;16.18;40.55;101518.22;5170388;28;20061;-84
2022/05/28 11:07:44;;;;;;;0.38;0.38;;;;;;;16.20;40.74;101512.84;5181544;28;20511;-84
2022/05/28 11:10:24;;;;;;;0.30;0.30;;;;;;;16.29;39.55;101508.97;5181783;28;20091;-84
2022/05/28 11:13:16;;;;;;;0.30;0.30;;;;;;;16.33;40.49;101500.84;5202692;28;20056;-83
2022/05/28 11:16:17;;;;;;;0.38;0.38;;;;;;;16.41;40.31;101503.22;5150368;28;20033;-84
2022/05/28 11:19:18;;;;;;;0.30;0.30;;;;;;;16.40;40.12;101501.50;5158253;28;20021;-83
2022/05/28 11:21:59;;;;;;;0.40;0.40;;;;;;;16.60;40.13;101508.66;5171034;28;20041;-83
2022/05/28 11:24:58;;;;;;;0.38;0.38;;;;;;;16.55;40.72;101494.75;5183124;28;20034;-83
2022/05/28 11:27:48;;;;;;;0.45;0.45;;;;;;;16.73;40.75;101497.56;5183622;28;20029;-82
2022/05/28 11:30:24;;;;;;;0.60;0.35;;;;;;;16.58;39.84;101483.16;5150245;28;20068;-81
2022/05/28 11:33:16;;;;;;;0.45;0.45;;;;;;;16.73;40.68;101485.19;5167401;28;20017;-81
2022/05/28 11:35:50;;;;;;;0.20;0.20;;;;;;;16.82;40.35;101487.44;5193067;28;20061;-81
2022/05/28 11:38:20;;;;;;;0.20;0.20;;;;;;;16.85;41.12;101481.16;5165352;28;20052;-83
2022/05/28 11:41:03;;;;;;;0.85;0.45;;;;;;;16.90;40.13;101473.00;5183703;28;20088;-83
2022/05/28 11:43:58;;;;;;;0.40;0.40;;;;;;;16.97;39.25;101478.03;5185361;28;20029;-83
2022/05/28 11:46:42;;;;;;;0.40;0.40;;;;;;;17.11;38.28;101468.63;5200341;28;20076;-83
2022/05/28 11:52:28;;;;;;;0.20;0.20;;;;;;;17.38;37.44;101463.06;5188616;28;20112;-83
2022/05/28 11:55:21;;;;;;;0.30;0.30;;;;;;;17.37;36.34;101469.28;5188501;28;20085;-81
2022/05/28 11:58:01;;;;;;;1.23;1.05;;;;;;;17.42;36.25;101464.63;5192818;28;20034;-82
2022/05/28 12:00:35;;;;;;;0.20;0.20;;;;;;;17.38;35.33;101463.91;5178855;28;20127;-81
2022/05/28 12:03:16;;;;;;;0.50;0.50;;;;;;;17.43;36.11;101463.72;5163632;28;20192;-81
2022/05/28 12:05:53;;;;;;;0.30;0.30;;;;;;;17.44;36.88;101466.28;5181744;28;20072;-81
2022/05/28 12:08:43;;;;;;;2.55;2.35;;;;;;;17.45;37.78;101456.56;5196160;23;20308;-78
2022/05/28 12:11:20;;;;;;;0.68;0.68;;;;;;;17.49;36.95;101454.63;5168604;28;20064;-79